SAS4478 ENGM-ENKR
Flight info
| Callsign | SAS4478 |
|---|---|
| Flight time | N/A |
| Altitude | 39000 |
| Route | RIBBE DCT EGAGO DCT TUVLU DCT SIVNU |
| Aircraft | A20N/M-SDE3FGIJ1RWXY/ALB1 |
Departure
| Time | N/A |
|---|---|
| Airport | Oslo-Gardermoen International Airport (ENGM) |
Arrival
| Time | 2026-04-16 15:02 |
|---|---|
| Airport | Kirkenes Airport, Høybuktmoen (ENKR) |
| Time | Latitude | Longitude | Altitude | Speed | Heading |
|---|---|---|---|---|---|
| 2026-04-16 13:42 | 63.68952 | 15.29934 | 37244 ft | 437 kts | 38° |
| 2026-04-16 13:42 | 63.73840 | 15.38102 | 36997 ft | 442 kts | 38° |
| 2026-04-16 13:42 | 63.76329 | 15.42274 | 37370 ft | 444 kts | 38° |
| 2026-04-16 13:43 | 63.78817 | 15.46455 | 37030 ft | 449 kts | 38° |
| 2026-04-16 13:43 | 63.81342 | 15.50708 | 37149 ft | 449 kts | 38° |
| 2026-04-16 13:43 | 63.83841 | 15.54925 | 37196 ft | 452 kts | 38° |
| 2026-04-16 13:44 | 63.88900 | 15.63492 | 37237 ft | 454 kts | 38° |
| 2026-04-16 13:44 | 63.93940 | 15.72064 | 37242 ft | 454 kts | 38° |
| 2026-04-16 13:45 | 63.98947 | 15.80618 | 37248 ft | 454 kts | 38° |
| 2026-04-16 13:45 | 64.03954 | 15.89214 | 37248 ft | 453 kts | 38° |
| 2026-04-16 13:46 | 64.08949 | 15.97831 | 37245 ft | 452 kts | 38° |
| 2026-04-16 13:46 | 64.13996 | 16.06574 | 37249 ft | 452 kts | 38° |
| 2026-04-16 13:47 | 64.18982 | 16.15256 | 37244 ft | 452 kts | 38° |
| 2026-04-16 13:47 | 64.23966 | 16.23971 | 37252 ft | 451 kts | 38° |
| 2026-04-16 13:48 | 64.28928 | 16.32692 | 37252 ft | 451 kts | 38° |
| 2026-04-16 13:48 | 64.33889 | 16.41447 | 37256 ft | 450 kts | 38° |
| 2026-04-16 13:49 | 64.38863 | 16.50268 | 37259 ft | 449 kts | 39° |
| 2026-04-16 13:49 | 64.43796 | 16.59058 | 37256 ft | 449 kts | 38° |
| 2026-04-16 13:50 | 64.48695 | 16.67834 | 37266 ft | 449 kts | 39° |
| 2026-04-16 13:50 | 64.53619 | 16.76689 | 37274 ft | 448 kts | 39° |
| 2026-04-16 13:51 | 64.58513 | 16.85533 | 37281 ft | 447 kts | 39° |
| 2026-04-16 13:51 | 64.63387 | 16.94379 | 37283 ft | 446 kts | 39° |
| 2026-04-16 13:52 | 64.68255 | 17.03256 | 37271 ft | 445 kts | 39° |
| 2026-04-16 13:52 | 64.73112 | 17.12160 | 37260 ft | 445 kts | 39° |
| 2026-04-16 13:53 | 64.77958 | 17.21083 | 37253 ft | 445 kts | 39° |
| 2026-04-16 13:53 | 64.82803 | 17.30045 | 37255 ft | 444 kts | 39° |
| 2026-04-16 13:54 | 64.87631 | 17.39016 | 37262 ft | 444 kts | 39° |
| 2026-04-16 13:54 | 64.92431 | 17.47980 | 37261 ft | 443 kts | 39° |
| 2026-04-16 13:55 | 64.97231 | 17.56985 | 37271 ft | 443 kts | 39° |
| 2026-04-16 13:55 | 65.02041 | 17.66054 | 37271 ft | 442 kts | 39° |
| 2026-04-16 13:56 | 65.06831 | 17.75128 | 37281 ft | 442 kts | 39° |
| 2026-04-16 13:56 | 65.11584 | 17.84173 | 37277 ft | 442 kts | 39° |
| 2026-04-16 13:57 | 65.16370 | 17.93322 | 37285 ft | 442 kts | 39° |
| 2026-04-16 13:57 | 65.21121 | 18.02449 | 37283 ft | 442 kts | 39° |
| 2026-04-16 13:58 | 65.28242 | 18.16213 | 37282 ft | 441 kts | 39° |
| 2026-04-16 13:58 | 65.32999 | 18.25459 | 37274 ft | 441 kts | 39° |
| 2026-04-16 13:59 | 65.37727 | 18.34697 | 37276 ft | 440 kts | 39° |
| 2026-04-16 13:59 | 65.42448 | 18.43962 | 37276 ft | 441 kts | 39° |
| 2026-04-16 14:00 | 65.47161 | 18.53259 | 37271 ft | 441 kts | 38° |
| 2026-04-16 14:00 | 65.51931 | 18.62713 | 37268 ft | 441 kts | 38° |
| 2026-04-16 14:01 | 65.56623 | 18.72062 | 37278 ft | 440 kts | 39° |
| 2026-04-16 14:01 | 65.61340 | 18.81501 | 37277 ft | 440 kts | 39° |
| 2026-04-16 14:02 | 65.66019 | 18.90910 | 37279 ft | 440 kts | 39° |
| 2026-04-16 14:02 | 65.70732 | 19.00430 | 37290 ft | 441 kts | 39° |
| 2026-04-16 14:03 | 65.75405 | 19.09924 | 37293 ft | 441 kts | 39° |
| 2026-04-16 14:03 | 65.80089 | 19.19483 | 37293 ft | 440 kts | 38° |
| 2026-04-16 14:04 | 65.84795 | 19.29134 | 37289 ft | 440 kts | 38° |
| 2026-04-16 14:04 | 65.89465 | 19.38757 | 37292 ft | 440 kts | 38° |
| 2026-04-16 14:05 | 65.94113 | 19.48384 | 37298 ft | 440 kts | 38° |
| 2026-04-16 14:05 | 65.98785 | 19.58109 | 37300 ft | 441 kts | 38° |
| 2026-04-16 14:06 | 66.03415 | 19.67793 | 37295 ft | 441 kts | 39° |
| 2026-04-16 14:06 | 66.08089 | 19.77618 | 37293 ft | 441 kts | 39° |
| 2026-04-16 14:07 | 66.12726 | 19.87417 | 37300 ft | 440 kts | 39° |
| 2026-04-16 14:07 | 66.17358 | 19.97252 | 37298 ft | 441 kts | 38° |
| 2026-04-16 14:08 | 66.21994 | 20.07147 | 37292 ft | 441 kts | 38° |
| 2026-04-16 14:08 | 66.26623 | 20.17071 | 37294 ft | 441 kts | 38° |
| 2026-04-16 14:09 | 66.31229 | 20.27002 | 37304 ft | 441 kts | 38° |
| 2026-04-16 14:09 | 66.35857 | 20.37028 | 37307 ft | 441 kts | 38° |
| 2026-04-16 14:10 | 66.40442 | 20.47011 | 37314 ft | 441 kts | 38° |
| 2026-04-16 14:10 | 66.45039 | 20.57073 | 37315 ft | 441 kts | 38° |
| 2026-04-16 14:11 | 66.49656 | 20.67229 | 37317 ft | 441 kts | 39° |
| 2026-04-16 14:11 | 66.54222 | 20.77327 | 37311 ft | 442 kts | 39° |
| 2026-04-16 14:12 | 66.58821 | 20.87551 | 37308 ft | 441 kts | 38° |
| 2026-04-16 14:12 | 66.63393 | 20.97764 | 37313 ft | 442 kts | 38° |
| 2026-04-16 14:13 | 66.67953 | 21.08000 | 37304 ft | 441 kts | 38° |
| 2026-04-16 14:13 | 66.72508 | 21.18283 | 37296 ft | 442 kts | 38° |
| 2026-04-16 14:14 | 66.77066 | 21.28622 | 37294 ft | 442 kts | 38° |
| 2026-04-16 14:14 | 66.81597 | 21.38954 | 37294 ft | 442 kts | 38° |
| 2026-04-16 14:15 | 66.86156 | 21.49406 | 37295 ft | 443 kts | 38° |
| 2026-04-16 14:15 | 66.90709 | 21.59900 | 37305 ft | 443 kts | 38° |
| 2026-04-16 14:16 | 66.95240 | 21.70398 | 37292 ft | 443 kts | 39° |
| 2026-04-16 14:16 | 66.99796 | 21.81004 | 37295 ft | 444 kts | 39° |
| 2026-04-16 14:17 | 67.04333 | 21.91627 | 37281 ft | 444 kts | 38° |
| 2026-04-16 14:17 | 67.08853 | 22.02263 | 37288 ft | 444 kts | 38° |
| 2026-04-16 14:18 | 67.13407 | 22.13039 | 37286 ft | 444 kts | 38° |
| 2026-04-16 14:18 | 67.17911 | 22.23756 | 37285 ft | 444 kts | 38° |
| 2026-04-16 14:19 | 67.22436 | 22.34579 | 37291 ft | 444 kts | 38° |
| 2026-04-16 14:19 | 67.26939 | 22.45406 | 37300 ft | 445 kts | 38° |
| 2026-04-16 14:20 | 67.31422 | 22.56239 | 37291 ft | 445 kts | 38° |
| 2026-04-16 14:20 | 67.35949 | 22.67240 | 37294 ft | 446 kts | 39° |
| 2026-04-16 14:21 | 67.40459 | 22.78263 | 37294 ft | 447 kts | 39° |
| 2026-04-16 14:21 | 67.44956 | 22.89318 | 37289 ft | 447 kts | 39° |
| 2026-04-16 14:22 | 67.49447 | 23.00407 | 37305 ft | 447 kts | 39° |
| 2026-04-16 14:22 | 67.53926 | 23.11538 | 37286 ft | 447 kts | 39° |
| 2026-04-16 14:23 | 67.58440 | 23.22809 | 37278 ft | 447 kts | 39° |
| 2026-04-16 14:23 | 67.62910 | 23.34036 | 37293 ft | 447 kts | 39° |
| 2026-04-16 14:24 | 67.65155 | 23.39700 | 37505 ft | 447 kts | 39° |
| 2026-04-16 14:24 | 67.67390 | 23.45357 | 37434 ft | 446 kts | 38° |
| 2026-04-16 14:24 | 67.71820 | 23.56851 | 37330 ft | 446 kts | 40° |
| 2026-04-16 14:25 | 67.76149 | 23.68521 | 37291 ft | 446 kts | 41° |
| 2026-04-16 14:25 | 67.80479 | 23.80246 | 37289 ft | 447 kts | 40° |
| 2026-04-16 14:26 | 67.84774 | 23.91926 | 37286 ft | 447 kts | 40° |
| 2026-04-16 14:26 | 67.89129 | 24.03815 | 37281 ft | 447 kts | 40° |
| 2026-04-16 14:27 | 67.93417 | 24.15589 | 37277 ft | 447 kts | 40° |
| 2026-04-16 14:27 | 67.97729 | 24.27491 | 37271 ft | 447 kts | 40° |
| 2026-04-16 14:28 | 68.02022 | 24.39408 | 37259 ft | 447 kts | 40° |
| 2026-04-16 14:28 | 68.06330 | 24.51441 | 37281 ft | 447 kts | 40° |
| 2026-04-16 14:29 | 68.10599 | 24.63430 | 37273 ft | 448 kts | 40° |
| 2026-04-16 14:29 | 68.14919 | 24.75629 | 37271 ft | 449 kts | 41° |
| 2026-04-16 14:30 | 68.19215 | 24.87838 | 37254 ft | 449 kts | 41° |
| 2026-04-16 14:30 | 68.23475 | 25.00015 | 37249 ft | 450 kts | 41° |
| 2026-04-16 14:31 | 68.27751 | 25.12305 | 37251 ft | 450 kts | 41° |
| 2026-04-16 14:31 | 68.32013 | 25.24630 | 37255 ft | 450 kts | 41° |
| 2026-04-16 14:32 | 68.36267 | 25.37005 | 37247 ft | 450 kts | 41° |
| 2026-04-16 14:32 | 68.40500 | 25.49393 | 37258 ft | 451 kts | 41° |
| 2026-04-16 14:33 | 68.44765 | 25.61941 | 37244 ft | 452 kts | 41° |
| 2026-04-16 14:33 | 68.49020 | 25.74544 | 37240 ft | 452 kts | 42° |
| 2026-04-16 14:34 | 68.53243 | 25.87122 | 37247 ft | 452 kts | 42° |
| 2026-04-16 14:34 | 68.57496 | 25.99863 | 37246 ft | 454 kts | 42° |
| 2026-04-16 14:35 | 68.61711 | 26.12578 | 37021 ft | 453 kts | 42° |
| 2026-04-16 14:35 | 68.63813 | 26.18955 | 36818 ft | 450 kts | 42° |
| 2026-04-16 14:35 | 68.65889 | 26.25268 | 36601 ft | 446 kts | 42° |
| 2026-04-16 14:36 | 68.67931 | 26.31496 | 36400 ft | 442 kts | 41° |
| 2026-04-16 14:36 | 68.69979 | 26.37765 | 36165 ft | 439 kts | 41° |
| 2026-04-16 14:36 | 68.72009 | 26.43991 | 35785 ft | 437 kts | 41° |
| 2026-04-16 14:36 | 68.74007 | 26.50134 | 35292 ft | 435 kts | 41° |
| 2026-04-16 14:37 | 68.76005 | 26.56300 | 34788 ft | 435 kts | 40° |
| 2026-04-16 14:37 | 68.78020 | 26.62529 | 34175 ft | 434 kts | 40° |
| 2026-04-16 14:37 | 68.80011 | 26.68709 | 33772 ft | 430 kts | 40° |
| 2026-04-16 14:37 | 68.81961 | 26.74783 | 33390 ft | 424 kts | 40° |
| 2026-04-16 14:38 | 68.83888 | 26.80804 | 32994 ft | 419 kts | 40° |
| 2026-04-16 14:38 | 68.85819 | 26.86843 | 32498 ft | 415 kts | 39° |
| 2026-04-16 14:38 | 68.87709 | 26.92777 | 32111 ft | 409 kts | 39° |
| 2026-04-16 14:38 | 68.89562 | 26.98607 | 31686 ft | 404 kts | 38° |
| 2026-04-16 14:39 | 68.91392 | 27.04377 | 31266 ft | 398 kts | 38° |
| 2026-04-16 14:39 | 68.93186 | 27.10055 | 30859 ft | 391 kts | 38° |
| 2026-04-16 14:39 | 68.94961 | 27.15682 | 30421 ft | 385 kts | 38° |
| 2026-04-16 14:39 | 68.96698 | 27.21197 | 29999 ft | 379 kts | 38° |
| 2026-04-16 14:40 | 68.98405 | 27.26630 | 29575 ft | 373 kts | 38° |
| 2026-04-16 14:40 | 69.00101 | 27.32047 | 29162 ft | 368 kts | 37° |
| 2026-04-16 14:40 | 69.01774 | 27.37400 | 28711 ft | 364 kts | 37° |
| 2026-04-16 14:40 | 69.03405 | 27.42633 | 28271 ft | 360 kts | 37° |
| 2026-04-16 14:41 | 69.05037 | 27.47884 | 27848 ft | 356 kts | 37° |
| 2026-04-16 14:41 | 69.06636 | 27.53039 | 27410 ft | 352 kts | 37° |
| 2026-04-16 14:41 | 69.08221 | 27.58157 | 26992 ft | 348 kts | 37° |
| 2026-04-16 14:41 | 69.09800 | 27.63273 | 26590 ft | 344 kts | 37° |
| 2026-04-16 14:42 | 69.11325 | 27.68232 | 26198 ft | 342 kts | 38° |
| 2026-04-16 14:42 | 69.12897 | 27.73356 | 25713 ft | 341 kts | 38° |
| 2026-04-16 14:42 | 69.14429 | 27.78347 | 25289 ft | 339 kts | 38° |
| 2026-04-16 14:42 | 69.15947 | 27.83306 | 24875 ft | 337 kts | 38° |
| 2026-04-16 14:43 | 69.17457 | 27.88259 | 24458 ft | 334 kts | 38° |
| 2026-04-16 14:43 | 69.18969 | 27.93228 | 24050 ft | 333 kts | 38° |
| 2026-04-16 14:43 | 69.20450 | 27.98096 | 23621 ft | 332 kts | 39° |
| 2026-04-16 14:43 | 69.21950 | 28.03043 | 23185 ft | 332 kts | 39° |
| 2026-04-16 14:44 | 69.23435 | 28.07948 | 22717 ft | 332 kts | 39° |
| 2026-04-16 14:44 | 69.24934 | 28.12914 | 22274 ft | 331 kts | 40° |
| 2026-04-16 14:44 | 69.26413 | 28.17826 | 21816 ft | 332 kts | 41° |
| 2026-04-16 14:44 | 69.27882 | 28.22723 | 21365 ft | 331 kts | 41° |
| 2026-04-16 14:45 | 69.29356 | 28.27652 | 20904 ft | 331 kts | 41° |
| 2026-04-16 14:45 | 69.30836 | 28.32613 | 20459 ft | 330 kts | 42° |
| 2026-04-16 14:45 | 69.32310 | 28.37566 | 20011 ft | 328 kts | 43° |
| 2026-04-16 14:45 | 69.33764 | 28.42459 | 19570 ft | 327 kts | 43° |
| 2026-04-16 14:46 | 69.35216 | 28.47364 | 19129 ft | 326 kts | 43° |
| 2026-04-16 14:46 | 69.36647 | 28.52210 | 18692 ft | 324 kts | 43° |
| 2026-04-16 14:46 | 69.38081 | 28.57080 | 18269 ft | 322 kts | 44° |
| 2026-04-16 14:46 | 69.39512 | 28.61945 | 17852 ft | 319 kts | 44° |
| 2026-04-16 14:47 | 69.40907 | 28.66705 | 17452 ft | 317 kts | 44° |
| 2026-04-16 14:47 | 69.42312 | 28.71498 | 17044 ft | 315 kts | 44° |
| 2026-04-16 14:47 | 69.43694 | 28.76226 | 16642 ft | 313 kts | 45° |
| 2026-04-16 14:47 | 69.45087 | 28.80996 | 16235 ft | 311 kts | 45° |
| 2026-04-16 14:48 | 69.46448 | 28.85670 | 15834 ft | 309 kts | 45° |
| 2026-04-16 14:48 | 69.47812 | 28.90364 | 15431 ft | 307 kts | 45° |
| 2026-04-16 14:48 | 69.49162 | 28.95023 | 15034 ft | 305 kts | 45° |
| 2026-04-16 14:48 | 69.50505 | 28.99659 | 14635 ft | 304 kts | 45° |
| 2026-04-16 14:49 | 69.51840 | 29.04280 | 14239 ft | 302 kts | 45° |
| 2026-04-16 14:49 | 69.53158 | 29.08856 | 13858 ft | 300 kts | 45° |
| 2026-04-16 14:49 | 69.54489 | 29.13491 | 13473 ft | 298 kts | 45° |
| 2026-04-16 14:49 | 69.55798 | 29.18056 | 13085 ft | 296 kts | 45° |
| 2026-04-16 14:50 | 69.57081 | 29.22566 | 12709 ft | 295 kts | 47° |
| 2026-04-16 14:50 | 69.58291 | 29.27313 | 12318 ft | 295 kts | 50° |
| 2026-04-16 14:50 | 69.59460 | 29.32163 | 11926 ft | 294 kts | 51° |
| 2026-04-16 14:50 | 69.60599 | 29.36946 | 11530 ft | 292 kts | 51° |
| 2026-04-16 14:51 | 69.61740 | 29.41748 | 11134 ft | 291 kts | 51° |
| 2026-04-16 14:51 | 69.62863 | 29.46480 | 10778 ft | 289 kts | 51° |
| 2026-04-16 14:51 | 69.64001 | 29.51280 | 10383 ft | 287 kts | 51° |
| 2026-04-16 14:51 | 69.65096 | 29.55917 | 10277 ft | 276 kts | 51° |
| 2026-04-16 14:53 | 69.72326 | 29.86029 | 8159 ft | 253 kts | 40° |
| 2026-04-16 14:53 | 69.73678 | 29.89177 | 7838 ft | 247 kts | 29° |
| 2026-04-16 14:54 | 69.75143 | 29.91756 | 7526 ft | 245 kts | 27° |
| 2026-04-16 14:54 | 69.76599 | 29.94221 | 7213 ft | 243 kts | 27° |
| 2026-04-16 14:54 | 69.78052 | 29.96687 | 6902 ft | 241 kts | 27° |
| 2026-04-16 14:54 | 69.79482 | 29.99130 | 6595 ft | 240 kts | 27° |
| 2026-04-16 14:55 | 69.80903 | 30.01571 | 6285 ft | 238 kts | 27° |
| 2026-04-16 14:55 | 69.82327 | 30.04025 | 5972 ft | 237 kts | 27° |
| 2026-04-16 14:55 | 69.83732 | 30.06451 | 5663 ft | 236 kts | 27° |
| 2026-04-16 14:55 | 69.85019 | 30.09362 | 5330 ft | 241 kts | 46° |
| 2026-04-16 14:56 | 69.85768 | 30.13718 | 5013 ft | 249 kts | 70° |
| 2026-04-16 14:56 | 69.86131 | 30.18571 | 4817 ft | 244 kts | 72° |
| 2026-04-16 14:56 | 69.86457 | 30.23255 | 4734 ft | 232 kts | 72° |
| 2026-04-16 14:56 | 69.86752 | 30.27738 | 4647 ft | 225 kts | 78° |
| 2026-04-16 14:57 | 69.86466 | 30.32283 | 4534 ft | 239 kts | 117° |
| 2026-04-16 14:57 | 69.85211 | 30.35559 | 4246 ft | 247 kts | 155° |
| 2026-04-16 14:57 | 69.83614 | 30.37174 | 3992 ft | 246 kts | 161° |
| 2026-04-16 14:57 | 69.82001 | 30.38698 | 3733 ft | 245 kts | 160° |
| 2026-04-16 14:58 | 69.80328 | 30.39536 | 3416 ft | 243 kts | 188° |
| 2026-04-16 14:58 | 69.77976 | 30.34566 | 3253 ft | 199 kts | 260° |
| 2026-04-16 14:58 | 69.77668 | 30.30716 | 3246 ft | 195 kts | 266° |
| 2026-04-16 14:59 | 69.77377 | 30.27044 | 3235 ft | 185 kts | 263° |
| 2026-04-16 14:59 | 69.77027 | 30.23518 | 2970 ft | 182 kts | 262° |
| 2026-04-16 14:59 | 69.76662 | 30.20032 | 2695 ft | 180 kts | 259° |
| 2026-04-16 14:59 | 69.76251 | 30.16743 | 2424 ft | 170 kts | 256° |
| 2026-04-16 15:00 | 69.75833 | 30.13687 | 2208 ft | 158 kts | 257° |
| 2026-04-16 15:00 | 69.75446 | 30.10856 | 1943 ft | 150 kts | 257° |
| 2026-04-16 15:00 | 69.75080 | 30.08144 | 1693 ft | 138 kts | 258° |
| 2026-04-16 15:00 | 69.74753 | 30.05688 | 1486 ft | 131 kts | 258° |
| 2026-04-16 15:01 | 69.74425 | 30.03207 | 1286 ft | 133 kts | 257° |
| 2026-04-16 15:01 | 69.74092 | 30.00702 | 1099 ft | 131 kts | 256° |
| 2026-04-16 15:01 | 69.73766 | 29.98266 | 889 ft | 131 kts | 255° |
| 2026-04-16 15:01 | 69.73442 | 29.95824 | 685 ft | 130 kts | 255° |
| 2026-04-16 15:02 | 69.73126 | 29.93404 | 478 ft | 128 kts | 252° |
| 2026-04-16 15:02 | 69.72810 | 29.91039 | 309 ft | 124 kts | 251° |
| 2026-04-16 15:02 | 69.72560 | 29.89145 | 289 ft | 63 kts | 250° |
| 2026-04-16 15:02 | 69.72477 | 29.88550 | 285 ft | 14 kts | 248° |
| 2026-04-16 15:03 | 69.72402 | 29.88468 | 285 ft | 11 kts | 158° |
| 2026-04-16 15:03 | 69.72337 | 29.88547 | 286 ft | 10 kts | 157° |
| 2026-04-16 15:03 | 69.72282 | 29.88490 | 287 ft | 9 kts | 230° |
| 2026-04-16 15:03 | 69.72256 | 29.88293 | 286 ft | 11 kts | 249° |
| 2026-04-16 15:04 | 69.72221 | 29.88235 | 286 ft | 4 kts | 158° |
| 2026-04-16 15:04 | 69.72192 | 29.88269 | 286 ft | 2 kts | 159° |
| 2026-04-16 15:04 | 69.72187 | 29.88275 | 287 ft | 0 kts | 159° |
| 2026-04-16 15:25 | 69.72187 | 29.88274 | 287 ft | 0 kts | 159° |
| 2026-04-16 15:25 | 69.72195 | 29.88266 | 286 ft | 2 kts | 159° |
| 2026-04-16 15:25 | 69.72209 | 29.88250 | 286 ft | 2 kts | 159° |
| 2026-04-16 15:25 | 69.72218 | 29.88240 | 286 ft | 2 kts | 158° |
| 2026-04-16 15:26 | 69.72230 | 29.88213 | 286 ft | 2 kts | 122° |
| 2026-04-16 15:26 | 69.72235 | 29.88172 | 286 ft | 2 kts | 94° |
| 2026-04-16 15:26 | 69.72234 | 29.88139 | 286 ft | 0 kts | 72° |
| 2026-04-16 15:26 | 69.72234 | 29.88144 | 286 ft | 3 kts | 74° |
| 2026-04-16 15:27 | 69.72244 | 29.88213 | 286 ft | 1 kts | 69° |
| 2026-04-16 15:27 | 69.72244 | 29.88218 | 286 ft | 0 kts | 69° |
| 2026-04-16 15:30 | 69.72247 | 29.88236 | 286 ft | 1 kts | 69° |